createdAt,value
2017-11-30T00:00:55.281Z,20.50
2017-11-30T00:03:22.995Z,19.95
2017-11-30T00:05:50.629Z,18.42
2017-11-30T00:08:19.284Z,19.12
2017-11-30T00:10:46.919Z,20.25
2017-11-30T00:13:14.693Z,19.95
2017-11-30T00:15:42.282Z,18.75
2017-11-30T00:18:10.659Z,19.85
2017-11-30T00:20:38.363Z,19.83
2017-11-30T00:23:05.994Z,21.20
2017-11-30T00:25:34.949Z,21.55
2017-11-30T00:28:02.729Z,22.50
2017-11-30T00:30:30.341Z,22.00
2017-11-30T00:32:58.906Z,22.37
2017-11-30T00:35:26.553Z,22.35
2017-11-30T00:37:54.162Z,22.85
2017-11-30T00:40:22.657Z,21.80
2017-11-30T00:43:02.171Z,22.25
2017-11-30T00:45:30.867Z,23.17
2017-11-30T00:47:58.502Z,24.85
2017-11-30T00:50:26.117Z,24.75
2017-11-30T00:52:53.808Z,23.20
2017-11-30T00:55:21.389Z,22.83
2017-11-30T00:57:49.230Z,24.37
2017-11-30T01:00:16.825Z,23.40
2017-11-30T01:02:44.407Z,22.92
2017-11-30T01:05:12.037Z,22.70
2017-11-30T01:07:39.635Z,20.88
2017-11-30T01:10:07.202Z,20.40
2017-11-30T01:12:34.816Z,20.90
2017-11-30T01:15:02.410Z,23.33
2017-11-30T01:17:31.497Z,21.45
2017-11-30T01:19:59.105Z,23.17
2017-11-30T01:22:26.665Z,21.65
2017-11-30T01:24:54.222Z,21.12
2017-11-30T01:27:21.769Z,22.25
2017-11-30T01:29:49.344Z,21.25
2017-11-30T01:32:16.903Z,20.25
2017-11-30T01:34:44.760Z,19.10
2017-11-30T01:37:14.272Z,18.23
2017-11-30T01:39:41.900Z,19.02
2017-11-30T01:42:10.299Z,20.50
2017-11-30T01:44:37.861Z,20.33
2017-11-30T01:47:07.196Z,19.30
2017-11-30T01:49:34.767Z,20.98
2017-11-30T01:52:02.412Z,21.98
2017-11-30T01:54:29.980Z,20.12
2017-11-30T01:56:57.613Z,21.17
2017-11-30T01:59:25.947Z,21.10
2017-11-30T02:01:53.568Z,18.77
2017-11-30T02:04:22.570Z,20.30
2017-11-30T02:06:50.224Z,18.92
2017-11-30T02:09:18.598Z,19.90
2017-11-30T02:11:46.186Z,19.50
2017-11-30T02:14:13.823Z,17.35
2017-11-30T02:16:44.993Z,18.92
2017-11-30T02:19:12.855Z,18.02
2017-11-30T02:21:41.695Z,17.42
2017-11-30T02:24:09.354Z,18.90
2017-11-30T02:26:37.045Z,17.67
2017-11-30T02:29:05.520Z,18.12
2017-11-30T02:31:33.790Z,17.77
2017-11-30T02:34:01.740Z,17.02
2017-11-30T02:36:30.432Z,17.80
2017-11-30T02:38:59.509Z,16.60
2017-11-30T02:41:27.217Z,16.15
2017-11-30T02:43:55.231Z,16.37
2017-11-30T02:46:23.063Z,15.77
2017-11-30T02:48:51.014Z,16.45
2017-11-30T02:51:22.364Z,15.93
2017-11-30T02:53:50.136Z,16.77
2017-11-30T02:56:19.260Z,15.10
2017-11-30T02:58:47.096Z,17.08
2017-11-30T03:01:14.818Z,16.55
2017-11-30T03:03:42.435Z,17.45
2017-11-30T03:06:11.705Z,15.60
2017-11-30T03:08:39.539Z,17.27
2017-11-30T03:11:07.164Z,14.40
2017-11-30T03:13:37.584Z,15.02
2017-11-30T03:16:06.297Z,14.60
2017-11-30T03:18:34.720Z,13.48
2017-11-30T03:21:02.572Z,14.18
2017-11-30T03:23:30.139Z,14.10
2017-11-30T03:25:57.773Z,14.90
2017-11-30T03:28:26.827Z,13.25
2017-11-30T03:30:54.447Z,12.40
2017-11-30T03:33:22.791Z,11.93
2017-11-30T03:35:50.486Z,11.35
2017-11-30T03:38:19.067Z,12.10
2017-11-30T03:40:46.731Z,11.00
2017-11-30T03:43:14.461Z,12.85
2017-11-30T03:45:42.331Z,13.18
2017-11-30T03:48:09.974Z,11.75
2017-11-30T03:50:37.765Z,12.37
2017-11-30T03:53:05.572Z,13.80
2017-11-30T03:55:34.029Z,13.27
2017-11-30T03:58:01.834Z,12.77
2017-11-30T04:00:29.486Z,12.48
2017-11-30T04:02:57.265Z,13.23
2017-11-30T04:05:24.935Z,14.70
2017-11-30T04:07:52.600Z,14.05
2017-11-30T04:10:20.226Z,13.07
2017-11-30T04:12:47.879Z,13.30
2017-11-30T04:15:15.852Z,13.57
2017-11-30T04:17:43.684Z,14.27
2017-11-30T04:20:11.268Z,14.80
2017-11-30T04:22:39.157Z,14.82
2017-11-30T04:25:06.816Z,14.68
2017-11-30T04:27:34.624Z,13.60
2017-11-30T04:30:02.223Z,12.77
2017-11-30T04:32:29.849Z,12.93
2017-11-30T04:34:57.522Z,15.05
2017-11-30T04:37:25.070Z,15.60
2017-11-30T04:39:52.658Z,14.55
2017-11-30T04:42:20.207Z,13.93
2017-11-30T04:44:47.823Z,12.73
2017-11-30T04:47:16.240Z,14.23
2017-11-30T04:49:43.875Z,12.48
2017-11-30T04:52:12.240Z,13.43
2017-11-30T04:54:39.845Z,11.52
2017-11-30T04:57:07.463Z,13.93
2017-11-30T04:59:35.089Z,14.35
2017-11-30T05:02:02.689Z,13.32
2017-11-30T05:04:30.337Z,13.68
2017-11-30T05:06:57.923Z,15.65
2017-11-30T05:09:26.608Z,13.65
2017-11-30T05:11:54.214Z,10.27
2017-11-30T05:14:22.821Z,13.75
2017-11-30T05:16:50.406Z,13.25
2017-11-30T05:19:17.997Z,11.88
2017-11-30T05:21:45.600Z,13.02
2017-11-30T05:24:14.059Z,13.00
2017-11-30T05:26:41.632Z,12.43
2017-11-30T05:29:09.198Z,12.60
2017-11-30T05:31:36.816Z,12.90
2017-11-30T05:34:05.448Z,12.32
2017-11-30T05:36:33.075Z,11.85
2017-11-30T05:39:00.675Z,13.23
2017-11-30T05:41:28.301Z,12.75
2017-11-30T05:43:56.142Z,11.70
2017-11-30T05:46:24.717Z,13.93
2017-11-30T05:48:53.128Z,10.95
2017-11-30T05:51:21.054Z,13.15
2017-11-30T05:53:48.758Z,14.07
2017-11-30T05:56:16.470Z,13.18
2017-11-30T05:58:44.097Z,9.88
2017-11-30T06:01:12.461Z,12.95
2017-11-30T06:03:40.357Z,14.05
2017-11-30T06:06:07.995Z,11.48
2017-11-30T06:08:36.473Z,13.32
2017-11-30T06:11:07.116Z,12.63
2017-11-30T06:13:35.801Z,12.10
2017-11-30T06:16:04.393Z,12.82
2017-11-30T06:18:31.960Z,13.05
2017-11-30T06:21:00.315Z,13.13
2017-11-30T06:23:28.493Z,13.73
2017-11-30T06:25:57.827Z,13.35
2017-11-30T06:28:28.785Z,12.50
2017-11-30T06:31:26.418Z,12.75
2017-11-30T06:33:54.993Z,12.63
2017-11-30T06:36:24.841Z,11.18
2017-11-30T06:38:52.452Z,11.43
2017-11-30T06:41:20.610Z,11.12
2017-11-30T06:43:48.236Z,10.77
2017-11-30T06:46:17.825Z,10.18
2017-11-30T06:48:45.936Z,10.52
2017-11-30T06:51:14.532Z,10.05
2017-11-30T06:53:42.167Z,11.40
2017-11-30T06:56:09.780Z,12.05
2017-11-30T06:58:37.364Z,11.55
2017-11-30T07:01:04.941Z,12.45
2017-11-30T07:03:32.507Z,10.65
2017-11-30T07:06:00.127Z,10.57
2017-11-30T07:08:27.720Z,10.88
2017-11-30T07:10:55.433Z,9.05
2017-11-30T07:13:23.926Z,9.95
2017-11-30T07:15:51.751Z,11.30
2017-11-30T07:18:19.335Z,11.07
2017-11-30T07:20:46.981Z,10.00
2017-11-30T07:23:14.640Z,11.60
2017-11-30T07:25:43.074Z,10.60
2017-11-30T07:28:10.665Z,10.52
2017-11-30T07:30:38.439Z,10.18
2017-11-30T07:33:06.049Z,10.43
2017-11-30T07:35:33.753Z,10.77
2017-11-30T07:38:01.366Z,9.98
2017-11-30T07:40:29.173Z,11.40
2017-11-30T07:42:57.542Z,11.35
2017-11-30T07:45:25.209Z,9.75
2017-11-30T07:47:53.893Z,9.88
2017-11-30T07:50:21.535Z,10.77
2017-11-30T07:52:49.227Z,9.65
2017-11-30T07:55:16.999Z,8.63
2017-11-30T07:57:44.621Z,8.60
2017-11-30T08:00:13.255Z,9.27
2017-11-30T08:02:42.149Z,10.70
2017-11-30T08:05:09.754Z,10.60
2017-11-30T08:07:38.160Z,10.05
2017-11-30T08:10:05.725Z,9.68
2017-11-30T08:12:33.365Z,8.63
2017-11-30T08:15:01.790Z,9.90
2017-11-30T08:17:29.373Z,8.60
2017-11-30T08:19:56.932Z,8.75
2017-11-30T08:22:24.501Z,9.20
2017-11-30T08:24:52.135Z,9.45
2017-11-30T08:27:19.742Z,8.60
2017-11-30T08:29:47.302Z,9.05
2017-11-30T08:32:14.863Z,9.15
2017-11-30T08:34:43.484Z,8.40
2017-11-30T08:37:13.250Z,8.57
2017-11-30T08:39:41.634Z,9.05
2017-11-30T08:42:09.229Z,7.82
2017-11-30T08:44:36.789Z,8.80
2017-11-30T08:47:04.411Z,8.65
2017-11-30T08:49:31.997Z,9.05
2017-11-30T08:51:59.654Z,9.35
2017-11-30T08:54:27.226Z,8.98
2017-11-30T08:56:54.818Z,8.77
2017-11-30T08:59:22.398Z,8.85
2017-11-30T09:01:50.967Z,9.10
2017-11-30T09:04:18.568Z,9.90
2017-11-30T09:06:46.921Z,8.05
2017-11-30T09:09:14.511Z,9.77
2017-11-30T09:11:43.635Z,10.35
2017-11-30T09:14:11.827Z,8.95
2017-11-30T09:16:39.424Z,10.43
2017-11-30T09:19:06.988Z,9.60
2017-11-30T09:21:34.584Z,10.10
2017-11-30T09:24:02.899Z,9.55
2017-11-30T09:26:30.452Z,9.68
2017-11-30T09:28:58.013Z,9.30
2017-11-30T09:31:25.591Z,9.63
2017-11-30T09:33:53.217Z,8.38
2017-11-30T09:36:20.775Z,9.63
2017-11-30T09:38:48.354Z,8.52
2017-11-30T09:41:16.692Z,10.25
2017-11-30T09:43:44.335Z,8.50
2017-11-30T09:46:11.891Z,9.75
2017-11-30T09:48:39.604Z,9.57
2017-11-30T09:51:07.234Z,7.15
2017-11-30T09:53:34.816Z,8.43
2017-11-30T09:56:02.415Z,8.70
2017-11-30T09:58:30.076Z,8.70
2017-11-30T10:00:57.717Z,7.95
2017-11-30T10:03:25.343Z,9.20
2017-11-30T10:05:53.675Z,9.20
2017-11-30T10:08:21.213Z,8.95
2017-11-30T10:10:48.813Z,7.93
2017-11-30T10:13:16.371Z,9.05
2017-11-30T10:15:44.561Z,8.15
2017-11-30T10:18:12.119Z,9.95
2017-11-30T10:20:39.676Z,7.70
2017-11-30T10:23:07.266Z,6.82
2017-11-30T10:25:34.824Z,8.73
2017-11-30T10:28:03.947Z,7.72
2017-11-30T10:30:32.261Z,7.15
2017-11-30T10:32:59.854Z,7.50
2017-11-30T10:35:27.888Z,9.70
2017-11-30T10:37:55.477Z,7.10
2017-11-30T10:40:23.059Z,8.57
2017-11-30T10:42:50.671Z,8.38
2017-11-30T10:45:18.250Z,8.52
2017-11-30T10:47:45.818Z,7.40
2017-11-30T10:50:13.410Z,8.82
2017-11-30T10:52:41.047Z,9.02
2017-11-30T10:55:08.633Z,8.27
2017-11-30T10:57:36.189Z,7.90
2017-11-30T11:00:03.779Z,8.65
2017-11-30T11:02:31.661Z,8.48
2017-11-30T11:04:59.223Z,7.97
2017-11-30T11:07:26.799Z,7.72
2017-11-30T11:09:54.495Z,8.88
2017-11-30T11:12:22.097Z,7.57
2017-11-30T11:14:49.684Z,7.20
2017-11-30T11:17:17.266Z,7.60
2017-11-30T11:19:44.849Z,8.15
2017-11-30T11:22:12.447Z,6.40
2017-11-30T11:24:39.978Z,6.97
2017-11-30T11:27:07.598Z,6.50
2017-11-30T11:29:35.152Z,7.45
2017-11-30T11:32:02.715Z,7.93
2017-11-30T11:34:30.316Z,8.35
2017-11-30T11:36:57.857Z,9.35
2017-11-30T11:39:25.489Z,8.90
2017-11-30T11:41:53.528Z,9.50
2017-11-30T11:44:21.135Z,9.43
2017-11-30T11:46:48.710Z,7.93
2017-11-30T11:49:17.286Z,10.35
2017-11-30T11:51:44.948Z,8.68
2017-11-30T11:54:12.534Z,9.80
2017-11-30T11:56:40.135Z,10.45
2017-11-30T11:59:07.717Z,11.73
2017-11-30T12:01:35.324Z,10.68
2017-11-30T12:04:02.919Z,10.30
2017-11-30T12:06:30.513Z,10.40
2017-11-30T12:08:58.100Z,9.52
2017-11-30T12:11:25.689Z,10.68
2017-11-30T12:13:53.335Z,10.50
2017-11-30T12:16:21.684Z,11.30
2017-11-30T12:18:49.368Z,11.60
2017-11-30T12:21:17.842Z,10.73
2017-11-30T12:23:45.460Z,9.70
2017-11-30T12:26:13.104Z,11.48
2017-11-30T12:28:41.649Z,10.73
2017-11-30T12:31:09.380Z,9.95
2017-11-30T12:33:37.820Z,11.25
2017-11-30T12:36:06.479Z,9.85
2017-11-30T12:38:34.192Z,10.70
2017-11-30T12:41:02.691Z,10.82
2017-11-30T12:43:31.097Z,10.60
2017-11-30T12:45:58.736Z,10.60
2017-11-30T12:48:27.011Z,9.90
2017-11-30T12:50:55.456Z,11.38
2017-11-30T12:53:23.111Z,9.50
2017-11-30T12:55:50.795Z,11.75
2017-11-30T12:58:18.404Z,11.48
2017-11-30T13:00:46.815Z,10.73
2017-11-30T13:03:14.413Z,9.30
2017-11-30T13:05:42.019Z,9.45
2017-11-30T13:08:10.535Z,9.65
2017-11-30T13:10:38.108Z,10.20
2017-11-30T13:13:05.703Z,10.38
2017-11-30T13:15:33.288Z,9.48
2017-11-30T13:18:01.629Z,9.63
2017-11-30T13:20:29.186Z,10.02
2017-11-30T13:22:56.771Z,10.45
2017-11-30T13:25:24.392Z,11.00
2017-11-30T13:27:52.003Z,10.90
2017-11-30T13:30:19.585Z,10.95
2017-11-30T13:32:47.180Z,9.95
2017-11-30T13:35:14.742Z,9.65
2017-11-30T13:37:43.070Z,9.10
2017-11-30T13:40:10.687Z,11.43
2017-11-30T13:42:39.012Z,10.73
2017-11-30T13:45:06.566Z,11.48
2017-11-30T13:47:34.113Z,10.10
2017-11-30T13:50:01.694Z,9.85
2017-11-30T13:52:29.246Z,11.02
2017-11-30T13:54:56.795Z,9.85
2017-11-30T13:57:25.144Z,10.18
2017-11-30T13:59:52.706Z,11.10
2017-11-30T14:02:21.287Z,9.50
2017-11-30T14:04:48.874Z,11.40
2017-11-30T14:07:17.207Z,9.95
2017-11-30T14:09:44.794Z,10.20
2017-11-30T14:12:12.388Z,10.15
2017-11-30T14:14:40.586Z,10.63
2017-11-30T14:17:08.193Z,10.15
2017-11-30T14:19:35.772Z,9.93
2017-11-30T14:22:03.336Z,10.40
2017-11-30T14:24:30.944Z,10.02
2017-11-30T14:26:59.286Z,9.50
2017-11-30T14:29:26.879Z,9.15
2017-11-30T14:31:55.223Z,10.10
2017-11-30T14:34:22.788Z,10.30
2017-11-30T14:36:50.370Z,9.52
2017-11-30T14:39:17.978Z,12.98
2017-11-30T14:41:46.310Z,11.00
2017-11-30T14:44:13.980Z,11.40
2017-11-30T14:46:41.542Z,9.93
2017-11-30T14:49:09.140Z,11.45
2017-11-30T14:51:36.816Z,10.65
2017-11-30T14:54:05.112Z,11.63
2017-11-30T14:56:32.741Z,9.57
2017-11-30T14:59:01.193Z,10.68
2017-11-30T15:01:28.825Z,9.93
2017-11-30T15:03:56.388Z,10.65
2017-11-30T15:06:23.984Z,10.90
2017-11-30T15:08:51.592Z,9.73
2017-11-30T15:11:19.135Z,9.30
2017-11-30T15:13:46.751Z,10.45
2017-11-30T15:16:15.150Z,10.95
2017-11-30T15:18:43.517Z,10.48
2017-11-30T15:21:11.163Z,11.35
2017-11-30T15:23:39.543Z,10.73
2017-11-30T15:26:07.574Z,10.68
2017-11-30T15:28:35.146Z,10.05
2017-11-30T15:31:02.746Z,10.55
2017-11-30T15:33:31.131Z,10.38
2017-11-30T15:35:58.671Z,10.90
2017-11-30T15:38:26.275Z,10.90
2017-11-30T15:40:54.656Z,10.25
2017-11-30T15:43:23.033Z,9.38
2017-11-30T15:45:51.359Z,11.38
2017-11-30T15:48:18.937Z,9.75
2017-11-30T15:50:46.597Z,11.07
2017-11-30T15:53:14.200Z,10.55
2017-11-30T15:55:42.586Z,11.60
2017-11-30T15:58:10.204Z,9.82
2017-11-30T16:00:37.752Z,11.35
2017-11-30T16:03:06.334Z,10.40
2017-11-30T16:05:33.907Z,10.50
2017-11-30T16:08:01.488Z,10.10
2017-11-30T16:10:29.037Z,9.60
2017-11-30T16:12:56.630Z,10.32
2017-11-30T16:15:24.208Z,7.87
2017-11-30T16:17:51.804Z,9.43
2017-11-30T16:20:19.398Z,9.23
2017-11-30T16:22:46.939Z,10.25
2017-11-30T16:25:15.343Z,10.27
2017-11-30T16:27:42.970Z,9.73
2017-11-30T16:30:10.512Z,10.25
2017-11-30T16:32:39.133Z,9.02
2017-11-30T16:35:06.724Z,10.40
2017-11-30T16:37:34.302Z,11.10
2017-11-30T16:40:01.891Z,10.25
2017-11-30T16:42:29.472Z,11.55
2017-11-30T16:44:57.073Z,11.20
2017-11-30T16:47:25.387Z,10.60
2017-11-30T16:49:52.968Z,10.98
2017-11-30T16:52:20.628Z,10.35
2017-11-30T16:54:48.206Z,10.10
2017-11-30T16:57:15.827Z,11.90
2017-11-30T16:59:43.495Z,9.68
2017-11-30T17:02:11.085Z,10.05
2017-11-30T17:04:38.671Z,10.45
2017-11-30T17:07:06.258Z,10.02
2017-11-30T17:09:33.852Z,10.75
2017-11-30T17:12:02.240Z,12.00
2017-11-30T17:14:29.849Z,11.52
2017-11-30T17:16:57.423Z,10.45
2017-11-30T17:19:26.049Z,10.10
2017-11-30T17:21:54.493Z,11.85
2017-11-30T17:24:22.106Z,10.07
2017-11-30T17:26:50.526Z,11.02
2017-11-30T17:29:18.073Z,10.00
2017-11-30T17:31:45.651Z,10.05
2017-11-30T17:34:13.269Z,9.93
2017-11-30T17:36:40.870Z,10.90
2017-11-30T17:39:08.470Z,10.20
2017-11-30T17:41:36.063Z,9.60
2017-11-30T17:44:04.367Z,10.82
2017-11-30T17:46:31.953Z,9.02
2017-11-30T17:48:59.528Z,9.15
2017-11-30T17:51:27.174Z,9.15
2017-11-30T17:53:54.766Z,11.20
2017-11-30T17:56:22.349Z,10.38
2017-11-30T17:58:49.914Z,10.65
2017-11-30T18:01:17.461Z,10.18
2017-11-30T18:03:45.046Z,11.40
2017-11-30T18:06:12.761Z,10.25
2017-11-30T18:08:41.102Z,10.82
2017-11-30T18:11:08.644Z,10.15
2017-11-30T18:13:36.218Z,10.63
2017-11-30T18:16:03.777Z,11.82
2017-11-30T18:18:31.374Z,10.90
2017-11-30T18:20:59.728Z,10.98
2017-11-30T18:23:27.307Z,11.00
2017-11-30T18:25:54.853Z,10.57
2017-11-30T18:28:22.419Z,10.70
2017-11-30T18:30:50.016Z,10.00
2017-11-30T18:33:17.564Z,9.40
2017-11-30T18:35:45.126Z,9.70
2017-11-30T18:38:12.725Z,12.13
2017-11-30T18:40:40.302Z,10.02
2017-11-30T18:43:07.902Z,10.10
2017-11-30T18:45:35.471Z,10.73
2017-11-30T18:48:03.099Z,10.27
2017-11-30T18:50:31.433Z,11.02
2017-11-30T18:52:58.993Z,10.60
2017-11-30T18:55:26.610Z,11.18
2017-11-30T18:57:54.223Z,11.65
2017-11-30T19:00:21.811Z,11.60
2017-11-30T19:02:49.370Z,10.90
2017-11-30T19:05:16.960Z,9.82
2017-11-30T19:07:45.363Z,9.88
2017-11-30T19:10:12.953Z,10.85
2017-11-30T19:12:40.535Z,10.43
2017-11-30T19:15:08.324Z,10.63
2017-11-30T19:17:35.885Z,9.38
2017-11-30T19:20:03.572Z,9.75
2017-11-30T19:22:32.644Z,10.20
2017-11-30T19:25:00.206Z,9.80
2017-11-30T19:27:27.801Z,10.50
2017-11-30T19:29:56.158Z,11.12
2017-11-30T19:32:23.743Z,9.80
2017-11-30T19:34:51.340Z,10.30
2017-11-30T19:37:18.941Z,9.75
2017-11-30T19:39:46.493Z,9.50
2017-11-30T19:42:14.102Z,10.60
2017-11-30T19:44:41.647Z,10.10
2017-11-30T19:47:09.246Z,8.40
2017-11-30T19:49:37.628Z,8.88
2017-11-30T19:52:05.975Z,9.15
2017-11-30T19:54:33.522Z,9.68
2017-11-30T19:57:01.094Z,8.77
2017-11-30T19:59:28.706Z,9.50
2017-11-30T20:01:56.252Z,8.43
2017-11-30T20:04:23.818Z,8.95
2017-11-30T20:06:52.183Z,8.60
2017-11-30T20:09:20.801Z,9.55
2017-11-30T20:11:49.125Z,7.40
2017-11-30T20:14:16.686Z,7.93
2017-11-30T20:16:44.231Z,7.80
2017-11-30T20:19:11.775Z,7.20
2017-11-30T20:21:40.162Z,7.03
2017-11-30T20:24:08.747Z,7.15
2017-11-30T20:26:37.115Z,7.43
2017-11-30T20:29:04.955Z,8.52
2017-11-30T20:31:33.484Z,10.27
2017-11-30T20:34:01.089Z,11.50
2017-11-30T20:36:28.665Z,9.88
2017-11-30T20:38:56.231Z,7.80
2017-11-30T20:41:23.915Z,9.82
2017-11-30T20:43:51.617Z,8.23
2017-11-30T20:46:19.927Z,9.60
2017-11-30T20:48:47.507Z,7.97
2017-11-30T20:51:15.077Z,8.05
2017-11-30T20:53:42.647Z,8.60
2017-11-30T20:56:13.766Z,9.75
2017-11-30T20:58:41.330Z,8.52
2017-11-30T21:01:08.898Z,8.32
2017-11-30T21:03:36.492Z,8.15
2017-11-30T21:06:04.114Z,8.75
2017-11-30T21:08:32.456Z,6.47
2017-11-30T21:11:00.008Z,7.57
2017-11-30T21:13:27.588Z,6.55
2017-11-30T21:15:55.166Z,7.25
2017-11-30T21:18:22.741Z,6.85
2017-11-30T21:20:51.083Z,5.95
2017-11-30T21:23:18.625Z,6.95
2017-11-30T21:25:46.239Z,7.10
2017-11-30T21:28:13.837Z,7.60
2017-11-30T21:30:41.432Z,6.68
2017-11-30T21:33:09.039Z,7.20
2017-11-30T21:35:36.618Z,6.78
2017-11-30T21:38:04.973Z,6.28
2017-11-30T21:40:33.260Z,7.10
2017-11-30T21:43:00.917Z,6.35
2017-11-30T21:45:28.462Z,7.20
2017-11-30T21:47:56.037Z,5.72
2017-11-30T21:50:24.382Z,5.90
2017-11-30T21:52:51.955Z,7.12
2017-11-30T21:55:19.518Z,6.75
2017-11-30T21:57:47.104Z,6.18
2017-11-30T22:00:14.639Z,6.72
2017-11-30T22:02:43.175Z,5.15
2017-11-30T22:05:11.573Z,6.00
2017-11-30T22:07:39.154Z,6.30
2017-11-30T22:10:06.716Z,5.85
2017-11-30T22:12:35.070Z,5.22
2017-11-30T22:15:02.656Z,5.25
2017-11-30T22:17:30.208Z,5.80
2017-11-30T22:19:57.809Z,6.07
2017-11-30T22:22:26.188Z,6.75
2017-11-30T22:24:54.517Z,4.80
2017-11-30T22:27:22.106Z,5.10
2017-11-30T22:29:49.668Z,4.60
2017-11-30T22:32:17.255Z,4.60
2017-11-30T22:34:46.066Z,4.87
2017-11-30T22:37:15.053Z,3.80
2017-11-30T22:39:42.758Z,5.10
2017-11-30T22:42:10.360Z,3.87
2017-11-30T22:44:40.087Z,4.80
2017-11-30T22:47:09.374Z,5.40
2017-11-30T22:49:43.430Z,8.18
2017-11-30T22:52:11.145Z,6.75
2017-11-30T22:54:38.773Z,4.57
2017-11-30T22:57:07.196Z,4.50
2017-11-30T22:59:34.898Z,3.95
2017-11-30T23:02:03.328Z,3.62
2017-11-30T23:04:30.997Z,3.45
2017-11-30T23:06:58.652Z,3.40
2017-11-30T23:09:26.400Z,4.20
2017-11-30T23:11:54.756Z,4.40
2017-11-30T23:14:24.264Z,3.40
2017-11-30T23:16:51.854Z,4.40
2017-11-30T23:19:20.278Z,4.25
2017-11-30T23:21:47.884Z,5.32
2017-11-30T23:24:15.592Z,3.85
2017-11-30T23:26:43.205Z,5.00
2017-11-30T23:29:11.021Z,4.55
2017-11-30T23:31:38.694Z,3.85
2017-11-30T23:34:06.250Z,4.25
2017-11-30T23:36:34.641Z,3.80
2017-11-30T23:39:02.273Z,4.07
2017-11-30T23:41:30.785Z,3.75
2017-11-30T23:43:58.444Z,4.15
2017-11-30T23:46:26.096Z,4.00
2017-11-30T23:48:54.588Z,4.37
2017-11-30T23:51:22.256Z,3.92
2017-11-30T23:53:50.364Z,4.03
2017-11-30T23:56:18.127Z,3.65
2017-11-30T23:58:47.761Z,4.25
